createdAt,value
2023-01-11T00:01:04.059Z,5.28
2023-01-11T00:03:31.425Z,4.28
2023-01-11T00:05:58.922Z,4.72
2023-01-11T00:08:27.039Z,5.03
2023-01-11T00:10:54.182Z,5.13
2023-01-11T00:13:21.167Z,5.18
2023-01-11T00:15:47.927Z,8.70
2023-01-11T00:18:14.632Z,4.60
2023-01-11T00:20:41.666Z,4.85
2023-01-11T00:23:08.720Z,5.10
2023-01-11T00:25:35.635Z,4.60
2023-01-11T00:28:02.340Z,4.82
2023-01-11T00:30:29.077Z,6.03
2023-01-11T00:32:57.093Z,4.80
2023-01-11T00:35:24.227Z,5.20
2023-01-11T00:37:53.259Z,5.50
2023-01-11T00:40:20.500Z,4.97
2023-01-11T00:43:05.642Z,4.90
2023-01-11T00:45:50.822Z,4.40
2023-01-11T00:48:17.583Z,4.37
2023-01-11T00:50:44.298Z,4.75
2023-01-11T00:53:11.159Z,6.13
2023-01-11T00:55:37.949Z,5.13
2023-01-11T00:58:04.764Z,5.40
2023-01-11T01:00:31.509Z,5.07
2023-01-11T01:02:58.359Z,4.05
2023-01-11T01:05:25.191Z,3.72
2023-01-11T01:07:51.956Z,5.40
2023-01-11T01:10:18.896Z,4.10
2023-01-11T01:13:05.064Z,6.73
2023-01-11T01:15:32.826Z,4.68
2023-01-11T01:17:59.720Z,2.97
2023-01-11T01:20:26.599Z,8.23
2023-01-11T01:22:53.415Z,4.47
2023-01-11T01:25:20.173Z,3.43
2023-01-11T01:27:47.053Z,5.93
2023-01-11T01:30:15.671Z,4.20
2023-01-11T01:32:42.754Z,3.83
2023-01-11T01:35:09.642Z,4.60
2023-01-11T01:37:36.374Z,4.33
2023-01-11T01:40:03.912Z,3.85
2023-01-11T01:42:30.657Z,5.57
2023-01-11T01:45:01.423Z,4.45
2023-01-11T01:47:32.942Z,3.22
2023-01-11T01:50:03.388Z,4.53
2023-01-11T01:52:31.644Z,4.78
2023-01-11T01:55:00.247Z,4.45
2023-01-11T01:57:31.595Z,9.75
2023-01-11T02:00:01.873Z,5.32
2023-01-11T02:02:28.768Z,4.95
2023-01-11T02:04:56.572Z,3.63
2023-01-11T02:07:27.735Z,2.63
2023-01-11T02:10:06.543Z,3.90
2023-01-11T02:12:57.210Z,5.40
2023-01-11T02:15:24.259Z,3.97
2023-01-11T02:17:51.434Z,4.95
2023-01-11T02:20:30.024Z,3.20
2023-01-11T02:23:17.841Z,3.47
2023-01-11T02:26:15.952Z,4.63
2023-01-11T02:29:16.560Z,3.40
2023-01-11T02:32:25.046Z,5.05
2023-01-11T02:35:35.299Z,3.35
2023-01-11T02:38:09.985Z,4.65
2023-01-11T02:41:10.781Z,3.58
2023-01-11T02:44:06.116Z,4.47
2023-01-11T02:46:44.517Z,3.38
2023-01-11T02:49:14.196Z,5.95
2023-01-11T02:51:44.507Z,6.68
2023-01-11T02:54:12.103Z,5.25
2023-01-11T02:56:44.258Z,4.65
2023-01-11T02:59:13.644Z,4.53
2023-01-11T03:01:47.656Z,4.07
2023-01-11T03:04:34.627Z,4.03
2023-01-11T03:07:29.293Z,6.47
2023-01-11T03:10:19.845Z,5.07
2023-01-11T03:12:52.679Z,5.05
2023-01-11T03:15:49.715Z,4.53
2023-01-11T03:18:27.113Z,4.97
2023-01-11T03:21:12.822Z,4.93
2023-01-11T03:23:49.451Z,7.22
2023-01-11T03:26:30.357Z,4.63
2023-01-11T03:29:19.429Z,4.28
2023-01-11T03:32:21.160Z,5.60
2023-01-11T03:35:01.613Z,7.28
2023-01-11T03:37:37.361Z,4.35
2023-01-11T03:40:07.105Z,5.47
2023-01-11T03:42:34.244Z,5.35
2023-01-11T03:45:01.607Z,6.85
2023-01-11T03:47:30.323Z,4.95
2023-01-11T03:50:05.096Z,5.77
2023-01-11T03:52:35.936Z,4.55
2023-01-11T03:55:04.885Z,3.85
2023-01-11T03:57:33.939Z,6.18
2023-01-11T04:00:00.639Z,4.50
2023-01-11T04:02:33.979Z,4.87
2023-01-11T04:05:00.981Z,5.60
2023-01-11T04:07:28.346Z,5.22
2023-01-11T04:09:55.091Z,7.85
2023-01-11T04:12:21.779Z,8.30
2023-01-11T04:14:48.473Z,6.57
2023-01-11T04:17:15.166Z,6.43
2023-01-11T04:19:41.911Z,10.93
2023-01-11T04:22:08.637Z,6.88
2023-01-11T04:24:35.346Z,10.00
2023-01-11T04:27:02.093Z,8.77
2023-01-11T04:29:28.830Z,14.95
2023-01-11T04:31:55.713Z,18.17
2023-01-11T04:34:22.478Z,15.60
2023-01-11T04:36:49.179Z,15.98
2023-01-11T04:39:15.886Z,15.80
2023-01-11T04:42:01.314Z,11.95
2023-01-11T04:44:27.989Z,7.97
2023-01-11T04:46:54.672Z,5.82
2023-01-11T04:49:21.370Z,6.38
2023-01-11T04:51:48.191Z,7.32
2023-01-11T04:54:16.153Z,8.25
2023-01-11T04:56:42.855Z,6.80
2023-01-11T04:59:09.565Z,6.22
2023-01-11T05:01:36.495Z,6.75
2023-01-11T05:04:03.311Z,8.43
2023-01-11T05:06:30.179Z,7.97
2023-01-11T05:08:56.978Z,6.50
2023-01-11T05:11:23.718Z,7.10
2023-01-11T05:13:50.990Z,7.43
2023-01-11T05:16:20.601Z,7.80
2023-01-11T05:18:50.116Z,7.95
2023-01-11T05:21:20.245Z,7.80
2023-01-11T05:23:47.401Z,8.45
2023-01-11T05:26:20.036Z,8.43
2023-01-11T05:28:47.026Z,8.10
2023-01-11T05:31:13.845Z,6.57
2023-01-11T05:33:40.698Z,9.32
2023-01-11T05:36:10.836Z,9.05
2023-01-11T05:38:37.671Z,9.73
2023-01-11T05:41:10.201Z,9.02
2023-01-11T05:43:58.024Z,9.35
2023-01-11T05:46:26.358Z,8.52
2023-01-11T05:48:54.853Z,6.75
2023-01-11T05:51:22.744Z,6.75
2023-01-11T05:53:49.577Z,6.23
2023-01-11T05:56:16.269Z,7.32
2023-01-11T05:58:42.932Z,6.70
2023-01-11T06:01:12.425Z,10.70
2023-01-11T06:03:39.218Z,9.15
2023-01-11T06:06:06.205Z,8.70
2023-01-11T06:08:33.157Z,8.80
2023-01-11T06:11:00.193Z,7.15
2023-01-11T06:13:27.243Z,7.90
2023-01-11T06:15:54.504Z,9.23
2023-01-11T06:18:21.725Z,8.77
2023-01-11T06:20:52.451Z,11.00
2023-01-11T06:23:19.347Z,10.57
2023-01-11T06:25:46.665Z,10.63
2023-01-11T06:28:13.842Z,10.98
2023-01-11T06:30:40.996Z,11.32
2023-01-11T06:33:08.088Z,8.10
2023-01-11T06:35:39.697Z,9.73
2023-01-11T06:38:08.454Z,11.35
2023-01-11T06:40:35.843Z,9.48
2023-01-11T06:43:02.735Z,11.20
2023-01-11T06:45:30.453Z,9.20
2023-01-11T06:47:57.599Z,12.10
2023-01-11T06:50:24.671Z,8.45
2023-01-11T06:52:59.144Z,9.95
2023-01-11T06:55:27.884Z,10.82
2023-01-11T06:57:55.225Z,9.10
2023-01-11T07:00:22.617Z,10.45
2023-01-11T07:02:49.541Z,9.93
2023-01-11T07:05:19.187Z,9.75
2023-01-11T07:07:46.473Z,8.73
2023-01-11T07:10:15.185Z,7.75
2023-01-11T07:12:42.356Z,9.25
2023-01-11T07:15:10.329Z,9.23
2023-01-11T07:17:37.147Z,6.68
2023-01-11T07:20:05.514Z,12.07
2023-01-11T07:22:36.173Z,10.15
2023-01-11T07:25:04.717Z,9.90
2023-01-11T07:27:31.786Z,10.00
2023-01-11T07:30:01.308Z,9.10
2023-01-11T07:32:28.720Z,8.73
2023-01-11T07:34:56.174Z,10.18
2023-01-11T07:37:28.953Z,15.88
2023-01-11T07:39:56.167Z,10.35
2023-01-11T07:42:41.554Z,10.18
2023-01-11T07:45:08.765Z,8.20
2023-01-11T07:47:35.486Z,8.75
2023-01-11T07:50:02.246Z,8.00
2023-01-11T07:52:29.045Z,9.02
2023-01-11T07:55:02.140Z,10.57
2023-01-11T07:57:29.981Z,10.03
2023-01-11T07:59:56.860Z,9.43
2023-01-11T08:02:25.321Z,7.85
2023-01-11T08:04:52.189Z,9.68
2023-01-11T08:07:18.922Z,10.60
2023-01-11T08:09:45.646Z,12.33
2023-01-11T08:12:30.869Z,10.05
2023-01-11T08:15:00.449Z,9.07
2023-01-11T08:17:27.614Z,11.05
2023-01-11T08:19:55.914Z,8.63
2023-01-11T08:22:22.844Z,9.87
2023-01-11T08:24:49.828Z,9.32
2023-01-11T08:27:16.549Z,9.88
2023-01-11T08:29:44.321Z,7.95
2023-01-11T08:32:12.321Z,11.02
2023-01-11T08:34:39.436Z,11.97
2023-01-11T08:37:06.279Z,12.20
2023-01-11T08:39:33.419Z,10.15
2023-01-11T08:42:00.636Z,8.65
2023-01-11T08:44:34.993Z,7.78
2023-01-11T08:47:03.179Z,12.50
2023-01-11T08:49:30.638Z,6.55
2023-01-11T08:51:57.691Z,8.73
2023-01-11T08:54:25.146Z,7.90
2023-01-11T08:56:52.010Z,8.77
2023-01-11T08:59:20.057Z,8.50
2023-01-11T09:01:47.288Z,7.93
2023-01-11T09:04:24.109Z,6.97
2023-01-11T09:06:51.875Z,7.80
2023-01-11T09:09:18.615Z,9.35
2023-01-11T09:11:54.661Z,9.33
2023-01-11T09:14:22.623Z,8.18
2023-01-11T09:16:51.779Z,5.97
2023-01-11T09:19:18.592Z,7.22
2023-01-11T09:21:46.466Z,7.60
2023-01-11T09:24:14.078Z,8.13
2023-01-11T09:26:43.336Z,7.47
2023-01-11T09:29:11.256Z,7.30
2023-01-11T09:31:42.870Z,7.25
2023-01-11T09:34:12.867Z,7.05
2023-01-11T09:36:40.601Z,8.37
2023-01-11T09:39:15.074Z,8.10
2023-01-11T09:42:19.265Z,8.15
2023-01-11T09:44:53.115Z,6.65
2023-01-11T09:48:04.788Z,7.07
2023-01-11T09:50:41.737Z,8.43
2023-01-11T09:53:17.518Z,7.95
2023-01-11T09:55:46.920Z,8.50
2023-01-11T09:58:33.410Z,8.15
2023-01-11T10:01:10.775Z,6.40
2023-01-11T10:04:06.284Z,4.73
2023-01-11T10:07:21.292Z,4.35
2023-01-11T10:18:42.660Z,5.63
2023-01-11T10:19:18.524Z,5.97
2023-01-11T10:21:50.723Z,5.50
2023-01-11T10:24:23.880Z,6.20
2023-01-11T10:26:51.644Z,8.07
2023-01-11T10:29:59.344Z,8.07
2023-01-11T10:32:59.142Z,5.00
2023-01-11T10:35:48.996Z,7.03
2023-01-11T10:38:47.320Z,7.85
2023-01-11T10:41:25.836Z,6.07
2023-01-11T10:44:10.081Z,7.90
2023-01-11T10:46:44.838Z,7.63
2023-01-11T10:49:50.307Z,5.80
2023-01-11T10:52:41.511Z,9.85
2023-01-11T10:55:17.785Z,6.93
2023-01-11T10:58:01.240Z,9.18
2023-01-11T11:00:39.483Z,6.10
2023-01-11T11:03:39.038Z,6.75
2023-01-11T11:06:33.496Z,4.82
2023-01-11T11:09:35.529Z,7.95
2023-01-11T11:12:24.214Z,6.07
2023-01-11T11:15:46.294Z,6.43
2023-01-11T11:18:18.656Z,7.80
2023-01-11T11:20:47.464Z,3.88
2023-01-11T11:23:21.959Z,5.75
2023-01-11T11:25:51.817Z,6.70
2023-01-11T11:28:30.595Z,6.37
2023-01-11T11:31:03.180Z,4.90
2023-01-11T11:33:38.326Z,5.60
2023-01-11T11:36:12.858Z,6.45
2023-01-11T11:38:42.505Z,7.25
2023-01-11T11:41:15.016Z,7.83
2023-01-11T11:43:43.644Z,8.52
2023-01-11T11:46:20.180Z,6.82
2023-01-11T11:49:15.243Z,8.23
2023-01-11T11:51:43.460Z,9.98
2023-01-11T11:54:31.661Z,7.00
2023-01-11T11:57:01.171Z,5.35
2023-01-11T11:59:29.992Z,7.97
2023-01-11T12:02:00.975Z,6.78
2023-01-11T12:04:47.509Z,7.57
2023-01-11T12:07:22.414Z,7.63
2023-01-11T12:09:55.055Z,5.68
2023-01-11T12:12:25.897Z,7.78
2023-01-11T12:15:07.962Z,5.47
2023-01-11T12:17:35.115Z,6.82
2023-01-11T12:20:02.024Z,8.47
2023-01-11T12:22:29.141Z,6.93
2023-01-11T12:25:08.316Z,8.05
2023-01-11T12:27:55.319Z,9.52
2023-01-11T12:30:27.140Z,8.02
2023-01-11T12:33:12.573Z,8.57
2023-01-11T12:35:41.955Z,7.85
2023-01-11T12:38:18.127Z,7.80
2023-01-11T12:41:04.312Z,7.30
2023-01-11T12:43:44.458Z,6.00
2023-01-11T12:46:34.394Z,10.03
2023-01-11T12:49:16.247Z,5.85
2023-01-11T12:52:20.547Z,7.75
2023-01-11T12:55:20.789Z,11.90
2023-01-11T12:58:08.889Z,6.20
2023-01-11T13:00:57.128Z,11.93
2023-01-11T13:03:48.479Z,8.85
2023-01-11T13:06:21.396Z,5.80
2023-01-11T13:09:03.257Z,6.55
2023-01-11T13:11:57.593Z,6.57
2023-01-11T13:14:49.597Z,6.00
2023-01-11T13:17:22.253Z,14.13
2023-01-11T13:20:16.935Z,7.70
2023-01-11T13:22:47.962Z,13.55
2023-01-11T13:25:18.930Z,9.85
2023-01-11T13:27:46.518Z,7.50
2023-01-11T13:30:14.732Z,9.00
2023-01-11T13:32:43.227Z,6.60
2023-01-11T13:35:24.738Z,11.32
2023-01-11T13:37:58.752Z,9.57
2023-01-11T13:40:36.118Z,8.87
2023-01-11T13:43:10.138Z,9.10
2023-01-11T13:45:48.712Z,9.45
2023-01-11T13:48:29.860Z,9.05
2023-01-11T13:51:04.585Z,7.95
2023-01-11T13:53:42.537Z,9.73
2023-01-11T13:56:18.843Z,11.18
2023-01-11T13:59:04.135Z,9.85
2023-01-11T14:01:48.040Z,9.45
2023-01-11T14:04:21.310Z,8.38
2023-01-11T14:07:13.069Z,8.83
2023-01-11T14:09:53.937Z,11.55
2023-01-11T14:12:32.617Z,10.93
2023-01-11T14:15:02.131Z,12.73
2023-01-11T14:18:09.358Z,11.13
2023-01-11T14:21:19.207Z,11.57
2023-01-11T14:23:55.242Z,13.32
2023-01-11T14:26:59.695Z,11.05
2023-01-11T14:29:29.448Z,13.70
2023-01-11T14:32:32.887Z,8.45
2023-01-11T14:35:37.391Z,7.60
2023-01-11T14:38:31.861Z,11.77
2023-01-11T14:41:11.697Z,12.43
2023-01-11T14:44:23.492Z,9.52
2023-01-11T14:47:35.442Z,7.15
2023-01-11T14:50:14.336Z,10.33
2023-01-11T14:52:41.661Z,9.48
2023-01-11T14:55:18.077Z,8.05
2023-01-11T14:58:01.441Z,12.13
2023-01-11T15:00:28.161Z,9.18
2023-01-11T15:03:00.755Z,9.57
2023-01-11T15:05:33.567Z,10.55
2023-01-11T15:08:31.526Z,10.13
2023-01-11T15:10:59.902Z,10.30
2023-01-11T15:13:45.539Z,8.02
2023-01-11T15:16:37.960Z,5.93
2023-01-11T15:19:07.131Z,10.77
2023-01-11T15:21:40.691Z,9.50
2023-01-11T15:24:22.232Z,13.77
2023-01-11T15:26:49.314Z,13.10
2023-01-11T15:29:42.695Z,11.57
2023-01-11T15:32:30.163Z,9.02
2023-01-11T15:35:36.203Z,15.35
2023-01-11T15:38:13.700Z,9.63
2023-01-11T15:40:46.538Z,10.55
2023-01-11T15:43:32.050Z,15.37
2023-01-11T15:46:49.669Z,14.55
2023-01-11T15:49:41.841Z,20.67
2023-01-11T15:52:39.445Z,20.77
2023-01-11T15:55:21.153Z,22.30
2023-01-11T15:58:32.216Z,23.67
2023-01-11T16:00:59.109Z,24.17
2023-01-11T16:03:44.969Z,22.65
2023-01-11T16:06:47.664Z,18.17
2023-01-11T16:09:31.070Z,17.10
2023-01-11T16:12:23.275Z,15.80
2023-01-11T16:15:01.912Z,14.88
2023-01-11T16:17:29.457Z,15.02
2023-01-11T16:19:57.112Z,14.93
2023-01-11T16:22:28.286Z,15.43
2023-01-11T16:25:01.407Z,14.60
2023-01-11T16:27:32.303Z,15.45
2023-01-11T16:29:59.300Z,15.80
2023-01-11T16:32:33.889Z,15.48
2023-01-11T16:35:01.834Z,14.00
2023-01-11T16:37:35.129Z,13.63
2023-01-11T16:40:11.259Z,15.20
2023-01-11T16:43:00.837Z,15.77
2023-01-11T16:45:45.055Z,16.63
2023-01-11T16:48:16.124Z,14.77
2023-01-11T16:50:58.637Z,18.90
2023-01-11T16:53:26.810Z,20.25
2023-01-11T16:56:02.941Z,19.42
2023-01-11T16:58:32.527Z,20.73
2023-01-11T17:01:04.769Z,18.75
2023-01-11T17:03:35.208Z,21.27
2023-01-11T17:06:08.143Z,21.83
2023-01-11T17:08:42.712Z,26.05
2023-01-11T17:11:32.876Z,28.80
2023-01-11T17:14:38.535Z,24.17
2023-01-11T17:17:07.840Z,22.23
2023-01-11T17:19:36.950Z,18.25
2023-01-11T17:22:13.451Z,20.90
2023-01-11T17:24:43.121Z,14.77
2023-01-11T17:27:18.372Z,16.70
2023-01-11T17:29:47.372Z,15.03
2023-01-11T17:32:32.873Z,16.88
2023-01-11T17:35:02.375Z,19.60
2023-01-11T17:37:29.266Z,18.20
2023-01-11T17:39:57.884Z,19.00
2023-01-11T17:42:43.780Z,16.63
2023-01-11T17:45:24.837Z,19.85
2023-01-11T17:47:53.232Z,19.23
2023-01-11T17:50:22.382Z,21.88
2023-01-11T17:52:54.704Z,16.92
2023-01-11T17:55:25.391Z,19.40
2023-01-11T17:58:19.279Z,21.83
2023-01-11T18:01:13.695Z,21.38
2023-01-11T18:03:49.762Z,15.63
2023-01-11T18:06:35.761Z,18.85
2023-01-11T18:09:18.538Z,19.40
2023-01-11T18:11:45.385Z,19.52
2023-01-11T18:14:27.293Z,17.95
2023-01-11T18:17:01.253Z,20.67
2023-01-11T18:19:54.302Z,18.63
2023-01-11T18:22:37.112Z,21.03
2023-01-11T18:25:39.567Z,19.80
2023-01-11T18:28:12.218Z,16.98
2023-01-11T18:30:41.170Z,16.73
2023-01-11T18:33:13.339Z,19.23
2023-01-11T18:35:44.420Z,14.57
2023-01-11T18:38:17.888Z,17.98
2023-01-11T18:40:45.848Z,17.05
2023-01-11T18:43:13.025Z,21.13
2023-01-11T18:45:41.250Z,18.35
2023-01-11T18:48:14.965Z,17.27
2023-01-11T18:50:42.778Z,15.30
2023-01-11T18:53:13.925Z,15.85
2023-01-11T18:55:41.065Z,17.45
2023-01-11T18:58:09.879Z,14.38
2023-01-11T19:00:37.221Z,19.43
2023-01-11T19:03:05.053Z,15.65
2023-01-11T19:05:31.930Z,19.02
2023-01-11T19:07:58.802Z,14.48
2023-01-11T19:10:26.770Z,16.77
2023-01-11T19:12:53.585Z,17.77
2023-01-11T19:15:21.000Z,16.13
2023-01-11T19:17:48.100Z,18.27
2023-01-11T19:20:15.311Z,19.88
2023-01-11T19:22:42.371Z,19.95
2023-01-11T19:25:11.476Z,18.00
2023-01-11T19:27:38.464Z,21.00
2023-01-11T19:30:06.555Z,20.25
2023-01-11T19:32:33.955Z,21.45
2023-01-11T19:35:01.450Z,25.48
2023-01-11T19:37:30.060Z,34.92
2023-01-11T19:39:57.018Z,30.80
2023-01-11T19:42:23.930Z,28.38
2023-01-11T19:44:51.452Z,22.02
2023-01-11T19:47:18.815Z,26.45
2023-01-11T19:49:45.580Z,19.53
2023-01-11T19:52:18.832Z,21.50
2023-01-11T19:54:46.888Z,24.13
2023-01-11T19:57:17.871Z,21.70
2023-01-11T19:59:45.106Z,22.40
2023-01-11T20:02:12.949Z,18.77
2023-01-11T20:04:40.288Z,19.13
2023-01-11T20:07:08.088Z,18.38
2023-01-11T20:09:37.778Z,16.23
2023-01-11T20:12:15.985Z,17.75
2023-01-11T20:14:44.533Z,13.03
2023-01-11T20:17:11.876Z,13.88
2023-01-11T20:19:38.790Z,13.73
2023-01-11T20:22:05.777Z,12.90
2023-01-11T20:24:32.547Z,15.23
2023-01-11T20:27:01.188Z,13.90
2023-01-11T20:29:28.090Z,11.73
2023-01-11T20:31:55.762Z,9.88
2023-01-11T20:34:22.724Z,12.10
2023-01-11T20:36:49.760Z,11.57
2023-01-11T20:39:17.513Z,11.93
2023-01-11T20:41:47.211Z,12.90
2023-01-11T20:44:32.101Z,10.73
2023-01-11T20:46:59.511Z,8.43
2023-01-11T20:49:28.940Z,13.00
2023-01-11T20:51:56.445Z,12.70
2023-01-11T20:54:23.335Z,11.75
2023-01-11T20:56:50.511Z,12.15
2023-01-11T20:59:20.178Z,12.07
2023-01-11T21:01:48.345Z,14.70
2023-01-11T21:04:16.498Z,10.83
2023-01-11T21:06:45.458Z,10.48
2023-01-11T21:09:14.759Z,11.50
2023-01-11T21:11:41.801Z,17.92
2023-01-11T21:14:12.127Z,15.50
2023-01-11T21:16:43.010Z,11.90
2023-01-11T21:19:14.607Z,10.27
2023-01-11T21:21:42.012Z,10.13
2023-01-11T21:24:12.377Z,10.23
2023-01-11T21:26:39.290Z,12.95
2023-01-11T21:29:06.286Z,18.20
2023-01-11T21:31:34.808Z,15.63
2023-01-11T21:34:02.289Z,16.67
2023-01-11T21:36:30.568Z,12.88
2023-01-11T21:38:58.595Z,11.95
2023-01-11T21:41:46.346Z,11.20
2023-01-11T21:44:14.124Z,13.73
2023-01-11T21:46:41.171Z,15.45
2023-01-11T21:49:08.142Z,14.27
2023-01-11T21:51:35.355Z,15.23
2023-01-11T21:54:10.730Z,17.83
2023-01-11T21:56:37.916Z,19.50
2023-01-11T21:59:04.750Z,16.05
2023-01-11T22:01:31.689Z,16.17
2023-01-11T22:03:58.510Z,15.18
2023-01-11T22:06:25.304Z,14.93
2023-01-11T22:08:52.391Z,17.70
2023-01-11T22:11:19.178Z,15.93
2023-01-11T22:13:45.956Z,18.92
2023-01-11T22:16:17.633Z,20.88
2023-01-11T22:18:45.501Z,24.63
2023-01-11T22:21:14.380Z,20.10
2023-01-11T22:23:41.641Z,20.58
2023-01-11T22:26:10.796Z,22.33
2023-01-11T22:28:57.492Z,24.85
2023-01-11T22:31:25.078Z,21.00
2023-01-11T22:33:51.946Z,15.30
2023-01-11T22:36:19.348Z,13.60
2023-01-11T22:38:46.858Z,14.93
2023-01-11T22:41:14.857Z,13.52
2023-01-11T22:43:43.072Z,14.75
2023-01-11T22:46:15.438Z,11.32
2023-01-11T22:48:42.445Z,13.73
2023-01-11T22:51:10.305Z,14.70
2023-01-11T22:53:41.114Z,12.65
2023-01-11T22:56:08.872Z,11.80
2023-01-11T22:58:38.460Z,11.95
2023-01-11T23:01:54.202Z,12.80
2023-01-11T23:04:20.964Z,21.38
2023-01-11T23:06:47.888Z,22.40
2023-01-11T23:09:16.720Z,23.00
2023-01-11T23:12:02.825Z,19.88
2023-01-11T23:14:33.742Z,19.35
2023-01-11T23:17:07.108Z,17.33
2023-01-11T23:19:38.981Z,17.52
2023-01-11T23:22:06.630Z,18.92
2023-01-11T23:24:33.448Z,15.60
2023-01-11T23:27:00.293Z,17.73
2023-01-11T23:29:27.241Z,21.80
2023-01-11T23:31:54.026Z,23.25
2023-01-11T23:34:20.831Z,25.67
2023-01-11T23:36:47.579Z,23.27
2023-01-11T23:39:15.798Z,28.05
2023-01-11T23:42:01.249Z,23.60
2023-01-11T23:44:27.990Z,26.75
2023-01-11T23:47:13.150Z,25.03
2023-01-11T23:49:39.991Z,22.83
2023-01-11T23:52:06.797Z,23.58
2023-01-11T23:54:34.138Z,20.67
2023-01-11T23:57:01.954Z,21.92
2023-01-11T23:59:28.812Z,24.07
